Time;durP1;ratioP1;P1;durP2;ratioP2;P2;SDS_P1;SDS_P2;PMS_P1;PMS_P2;Temp;Humidity;BMP_temperature;BMP_pressure;BME280_temperature;BME280_humidity;BME280_pressure;Samples;Min_cycle;Max_cycle;Signal;HPM_P1;HPM_P2
2021/04/26 00:00:01;;;;;;;9.20;4.47;;;8.60;38.90;;;;;;4999691;28;20495;-59
2021/04/26 00:02:27;;;;;;;10.73;3.80;;;8.60;39.00;;;;;;4997699;28;20188;-58
2021/04/26 00:04:52;;;;;;;11.33;4.00;;;8.60;39.60;;;;;;5000332;28;20550;-60
2021/04/26 00:07:18;;;;;;;5.30;4.37;;;8.60;39.10;;;;;;4994108;28;21342;-59
2021/04/26 00:09:44;;;;;;;12.87;4.80;;;8.50;39.00;;;;;;4997254;28;20208;-61
2021/04/26 00:12:09;;;;;;;11.13;4.90;;;8.50;39.10;;;;;;5002130;28;20177;-59
2021/04/26 00:14:35;;;;;;;9.20;4.27;;;8.50;39.10;;;;;;5000986;28;20486;-59
2021/04/26 00:17:01;;;;;;;7.50;3.60;;;8.40;39.20;;;;;;4998987;28;20192;-60
2021/04/26 00:19:26;;;;;;;5.30;3.50;;;8.40;39.30;;;;;;5001131;28;20574;-59
2021/04/26 00:21:52;;;;;;;14.17;4.17;;;8.40;39.40;;;;;;4999437;28;20178;-59
2021/04/26 00:24:18;;;;;;;6.97;3.47;;;8.40;39.20;;;;;;5001375;28;20264;-59
2021/04/26 00:26:43;;;;;;;7.97;3.70;;;8.40;39.50;;;;;;5006420;28;20196;-59
2021/04/26 00:29:09;;;;;;;6.83;3.97;;;8.40;39.60;;;;;;5008205;28;20660;-59
2021/04/26 00:31:35;;;;;;;10.43;3.90;;;8.40;39.70;;;;;;5001254;28;20535;-59
2021/04/26 00:34:00;;;;;;;9.80;3.73;;;8.40;39.60;;;;;;5002583;28;20684;-58
2021/04/26 00:36:26;;;;;;;7.50;4.10;;;8.30;39.70;;;;;;4999219;28;20801;-59
2021/04/26 00:38:52;;;;;;;7.07;4.80;;;8.30;39.70;;;;;;5001865;28;20759;-60
2021/04/26 00:41:17;;;;;;;9.23;3.83;;;8.30;39.60;;;;;;4997769;28;20187;-61
2021/04/26 00:43:43;;;;;;;7.30;4.13;;;8.30;39.60;;;;;;4997133;28;20195;-60
2021/04/26 00:46:11;;;;;;;10.00;3.93;;;8.20;39.70;;;;;;4998353;28;20184;-59
2021/04/26 00:48:37;;;;;;;9.13;3.70;;;8.20;40.10;;;;;;4996983;28;20226;-59
2021/04/26 00:51:03;;;;;;;6.93;3.97;;;8.20;40.10;;;;;;4997587;28;20456;-60
2021/04/26 00:53:29;;;;;;;6.53;3.87;;;8.20;40.10;;;;;;5031350;23;20532;-59
2021/04/26 00:55:55;;;;;;;4.80;3.40;;;8.10;40.10;;;;;;5015782;28;20466;-59
2021/04/26 00:58:21;;;;;;;6.47;3.53;;;8.10;40.10;;;;;;5019314;28;20641;-58
2021/04/26 01:00:47;;;;;;;7.07;3.70;;;8.00;40.30;;;;;;5021116;28;20521;-58
2021/04/26 01:03:13;;;;;;;6.13;3.90;;;8.00;40.40;;;;;;5016421;28;20469;-56
2021/04/26 01:05:39;;;;;;;4.60;3.70;;;7.90;40.40;;;;;;5015301;28;20176;-57
2021/04/26 01:08:05;;;;;;;5.10;3.30;;;7.80;40.50;;;;;;5017123;28;20528;-58
2021/04/26 01:10:34;;;;;;;4.30;2.87;;;7.80;40.80;;;;;;5016707;28;20465;-58
2021/04/26 01:13:08;;;;;;;9.43;4.37;;;7.70;40.80;;;;;;5016911;28;20997;-58
2021/04/26 01:16:03;;;;;;;4.90;3.60;;;7.70;41.00;;;;;;5015780;28;20434;-58
2021/04/26 01:18:43;;;;;;;5.20;3.00;;;7.70;41.00;;;;;;5015955;28;20438;-59
2021/04/26 01:21:27;;;;;;;4.50;2.97;;;7.70;41.20;;;;;;5015887;28;20591;-57
2021/04/26 01:23:58;;;;;;;7.13;3.47;;;7.60;41.20;;;;;;5017308;28;20463;-58
2021/04/26 01:26:29;;;;;;;5.03;3.23;;;7.60;41.50;;;;;;5016143;28;20438;-57
2021/04/26 01:29:00;;;;;;;9.10;3.10;;;7.60;41.60;;;;;;5017581;28;20526;-58
2021/04/26 01:31:57;;;;;;;8.40;3.87;;;7.50;41.60;;;;;;5017552;28;21006;-58
2021/04/26 01:34:26;;;;;;;5.93;2.80;;;7.50;41.60;;;;;;5033236;28;20549;-58
2021/04/26 01:36:53;;;;;;;6.10;3.40;;;7.50;41.70;;;;;;5022792;28;20430;-55
2021/04/26 01:39:19;;;;;;;6.43;3.90;;;7.50;42.10;;;;;;5019106;28;20496;-57
2021/04/26 01:41:46;;;;;;;8.80;3.43;;;7.40;42.00;;;;;;5013908;28;20426;-56
2021/04/26 01:44:12;;;;;;;5.87;3.30;;;7.40;42.10;;;;;;5017042;28;20472;-60
2021/04/26 01:46:42;;;;;;;9.83;3.80;;;7.40;42.20;;;;;;5015426;28;20435;-58
2021/04/26 01:49:08;;;;;;;4.10;2.90;;;7.40;42.30;;;;;;5016708;28;20457;-58
2021/04/26 01:51:34;;;;;;;7.63;4.83;;;7.40;42.30;;;;;;5015986;28;20463;-57
2021/04/26 01:54:01;;;;;;;7.47;3.30;;;7.40;42.40;;;;;;5016595;28;20609;-60
2021/04/26 01:56:28;;;;;;;7.67;3.97;;;7.40;42.40;;;;;;5015189;28;20442;-58
2021/04/26 01:58:55;;;;;;;3.20;2.90;;;7.30;42.40;;;;;;5018153;28;20911;-58
2021/04/26 02:01:23;;;;;;;8.60;3.23;;;7.30;42.50;;;;;;5012516;28;20446;-58
2021/04/26 02:03:52;;;;;;;6.87;2.83;;;7.20;42.50;;;;;;5012730;28;20550;-60
2021/04/26 02:06:19;;;;;;;10.47;3.17;;;7.20;42.80;;;;;;5015708;28;20500;-58
2021/04/26 02:08:44;;;;;;;6.00;2.97;;;7.20;42.90;;;;;;5019280;28;20527;-58
2021/04/26 02:11:14;;;;;;;7.17;3.87;;;7.10;43.00;;;;;;5022195;28;20965;-57
2021/04/26 02:13:42;;;;;;;7.53;3.50;;;7.00;43.30;;;;;;5013778;28;20203;-60
2021/04/26 02:16:07;;;;;;;4.03;2.90;;;7.00;43.60;;;;;;5015370;28;20778;-59
2021/04/26 02:18:34;;;;;;;5.90;3.70;;;7.00;44.00;;;;;;5016383;28;20426;-57
2021/04/26 02:21:00;;;;;;;4.97;3.60;;;7.00;43.90;;;;;;5017196;28;20180;-59
2021/04/26 02:23:27;;;;;;;4.27;3.60;;;7.00;44.00;;;;;;5013567;28;20974;-57
2021/04/26 02:25:52;;;;;;;7.97;3.50;;;7.00;44.00;;;;;;5016305;28;20915;-58
2021/04/26 02:28:19;;;;;;;8.03;3.77;;;7.00;44.00;;;;;;5017238;28;20435;-59
2021/04/26 02:30:45;;;;;;;8.13;3.60;;;7.00;44.20;;;;;;5016663;28;20779;-56
2021/04/26 02:33:16;;;;;;;7.57;3.60;;;6.90;44.30;;;;;;5017395;28;20458;-58
2021/04/26 02:35:48;;;;;;;4.83;3.57;;;7.00;44.40;;;;;;5018632;28;20433;-58
2021/04/26 02:38:22;;;;;;;5.20;3.40;;;6.90;44.40;;;;;;5021216;28;20429;-57
2021/04/26 02:40:52;;;;;;;5.57;3.40;;;7.00;44.40;;;;;;5019878;28;20870;-58
2021/04/26 02:43:19;;;;;;;5.77;3.33;;;6.90;44.30;;;;;;5025965;28;20607;-56
2021/04/26 02:45:57;;;;;;;5.07;3.30;;;6.90;44.30;;;;;;5019275;28;20796;-57
2021/04/26 02:48:23;;;;;;;4.90;3.40;;;6.90;44.40;;;;;;5018802;28;20787;-58
2021/04/26 02:50:54;;;;;;;6.40;3.80;;;6.90;44.50;;;;;;5022231;28;20478;-58
2021/04/26 02:53:24;;;;;;;8.13;3.10;;;6.80;44.60;;;;;;5018840;28;20578;-58
2021/04/26 02:55:52;;;;;;;11.20;4.40;;;6.80;44.50;;;;;;5019601;28;20458;-57
2021/04/26 02:58:19;;;;;;;4.13;3.33;;;6.80;44.80;;;;;;5019268;28;20661;-58
2021/04/26 03:00:45;;;;;;;11.70;4.67;;;6.80;44.80;;;;;;5016981;28;20581;-57
2021/04/26 03:03:14;;;;;;;6.50;3.60;;;6.80;44.90;;;;;;5019378;28;20454;-58
2021/04/26 03:05:40;;;;;;;5.13;3.33;;;6.70;44.80;;;;;;5018948;28;20501;-58
2021/04/26 03:08:06;;;;;;;9.00;4.30;;;6.70;45.00;;;;;;5016090;28;20525;-57
2021/04/26 03:10:33;;;;;;;4.50;3.20;;;6.60;45.10;;;;;;5021080;28;20461;-57
2021/04/26 03:12:59;;;;;;;8.53;3.80;;;6.60;45.20;;;;;;5020461;28;20618;-60
2021/04/26 03:15:27;;;;;;;6.53;3.60;;;6.50;45.20;;;;;;5017807;28;20715;-57
2021/04/26 03:17:53;;;;;;;9.77;3.70;;;6.50;45.40;;;;;;5020443;28;20442;-57
2021/04/26 03:20:20;;;;;;;12.13;4.10;;;6.50;45.50;;;;;;5019827;28;21029;-57
2021/04/26 03:22:47;;;;;;;4.63;3.50;;;6.50;45.50;;;;;;5018363;28;20445;-60
2021/04/26 03:25:14;;;;;;;5.43;3.50;;;6.50;45.70;;;;;;5017497;28;20518;-58
2021/04/26 03:27:42;;;;;;;7.13;3.60;;;6.50;45.60;;;;;;5033823;28;20443;-59
2021/04/26 03:30:10;;;;;;;7.50;4.30;;;6.40;45.70;;;;;;5014343;28;20462;-59
2021/04/26 03:32:36;;;;;;;7.80;4.17;;;6.40;45.70;;;;;;5018409;28;20423;-58
2021/04/26 03:35:03;;;;;;;5.07;3.80;;;6.40;45.90;;;;;;5018666;28;20542;-56
2021/04/26 03:37:30;;;;;;;5.50;3.70;;;6.40;46.00;;;;;;5019255;28;20533;-59
2021/04/26 03:39:56;;;;;;;7.70;4.50;;;6.40;46.20;;;;;;5019423;28;20456;-58
2021/04/26 03:42:21;;;;;;;6.60;3.93;;;6.40;46.30;;;;;;5019806;28;20466;-56
2021/04/26 03:44:49;;;;;;;9.00;4.50;;;6.30;46.30;;;;;;5017310;28;20482;-58
2021/04/26 03:47:15;;;;;;;8.07;6.00;;;6.30;46.30;;;;;;5024258;28;20253;-58
2021/04/26 03:49:41;;;;;;;5.70;4.87;;;6.30;46.30;;;;;;5023479;28;20434;-59
2021/04/26 03:52:07;;;;;;;5.63;4.47;;;6.30;46.30;;;;;;5025233;28;20454;-58
2021/04/26 03:54:34;;;;;;;6.30;4.40;;;6.30;46.40;;;;;;5023534;28;20211;-59
2021/04/26 03:57:00;;;;;;;9.30;4.97;;;6.20;46.50;;;;;;5022396;28;20763;-55
2021/04/26 03:59:25;;;;;;;6.67;4.50;;;6.10;46.50;;;;;;5020897;28;20477;-58
2021/04/26 04:01:51;;;;;;;13.83;5.80;;;6.20;46.70;;;;;;5014747;28;20470;-58
2021/04/26 04:04:17;;;;;;;12.30;5.40;;;6.10;46.60;;;;;;5020269;28;20199;-57
2021/04/26 04:06:42;;;;;;;11.73;5.10;;;6.10;46.80;;;;;;5017174;28;20191;-60
2021/04/26 04:09:08;;;;;;;8.10;4.70;;;6.10;46.80;;;;;;5020032;28;20625;-58
2021/04/26 04:11:34;;;;;;;9.00;4.80;;;6.10;46.80;;;;;;5023145;28;20307;-57
2021/04/26 04:14:01;;;;;;;7.20;4.50;;;6.10;47.00;;;;;;5013556;28;20450;-56
2021/04/26 04:16:28;;;;;;;6.00;5.30;;;6.00;46.90;;;;;;5016831;28;20593;-57
2021/04/26 04:18:54;;;;;;;6.40;4.63;;;6.00;47.00;;;;;;5018340;28;20431;-57
2021/04/26 04:21:20;;;;;;;7.50;5.10;;;6.00;47.00;;;;;;5017490;28;20442;-58
2021/04/26 04:23:46;;;;;;;8.37;4.97;;;6.00;47.00;;;;;;5019348;28;20886;-58
2021/04/26 04:26:12;;;;;;;9.37;4.70;;;6.00;47.10;;;;;;5018160;28;20437;-57
2021/04/26 04:28:37;;;;;;;11.80;4.37;;;5.90;47.10;;;;;;5018904;28;20624;-58
2021/04/26 04:31:04;;;;;;;5.23;4.70;;;5.90;47.30;;;;;;5018598;28;20371;-57
2021/04/26 04:33:30;;;;;;;6.73;5.07;;;6.00;47.60;;;;;;5018681;28;20529;-57
2021/04/26 04:35:57;;;;;;;9.47;5.10;;;5.90;47.50;;;;;;5015997;28;20916;-56
2021/04/26 04:38:24;;;;;;;18.00;5.90;;;5.90;47.70;;;;;;5012460;28;20469;-58
2021/04/26 04:40:50;;;;;;;8.30;5.63;;;6.00;47.90;;;;;;5019291;28;20545;-58
2021/04/26 04:43:16;;;;;;;10.43;5.90;;;5.90;47.80;;;;;;5017848;28;20450;-58
2021/04/26 04:45:42;;;;;;;13.10;6.17;;;5.90;47.80;;;;;;5015849;28;20191;-58
2021/04/26 04:48:07;;;;;;;6.63;5.50;;;5.90;47.80;;;;;;5016916;28;20192;-56
2021/04/26 04:50:33;;;;;;;12.37;5.40;;;5.90;47.80;;;;;;5014889;28;20235;-59
2021/04/26 04:52:59;;;;;;;5.87;5.27;;;6.00;47.90;;;;;;5014812;28;20212;-56
2021/04/26 04:55:25;;;;;;;7.73;5.90;;;5.90;47.90;;;;;;5007495;28;20183;-55
2021/04/26 04:57:50;;;;;;;7.20;5.20;;;6.00;48.20;;;;;;5014853;28;20183;-58
2021/04/26 05:00:16;;;;;;;8.03;5.37;;;6.00;48.20;;;;;;5012174;28;20183;-56
2021/04/26 05:02:42;;;;;;;11.53;6.30;;;6.00;48.30;;;;;;5015236;28;20233;-56
2021/04/26 05:05:08;;;;;;;14.43;5.60;;;6.10;48.30;;;;;;5016106;28;20435;-57
2021/04/26 05:07:34;;;;;;;12.00;5.93;;;6.10;48.30;;;;;;5018026;28;20663;-57
2021/04/26 05:09:59;;;;;;;8.70;5.37;;;6.00;48.60;;;;;;5015063;28;20434;-56
2021/04/26 05:12:25;;;;;;;7.33;4.90;;;6.10;48.80;;;;;;5018451;28;20709;-55
2021/04/26 05:14:51;;;;;;;10.40;6.53;;;6.10;48.70;;;;;;5012927;28;21453;-57
2021/04/26 05:17:18;;;;;;;11.43;6.17;;;6.10;48.80;;;;;;5017628;28;20195;-57
2021/04/26 05:19:44;;;;;;;8.93;5.67;;;6.20;48.70;;;;;;5016510;28;20436;-56
2021/04/26 05:22:10;;;;;;;9.60;5.73;;;6.20;48.60;;;;;;5018441;28;20576;-56
2021/04/26 05:24:36;;;;;;;10.17;6.33;;;6.20;48.60;;;;;;5010774;28;20544;-57
2021/04/26 05:27:03;;;;;;;17.33;6.83;;;6.20;48.60;;;;;;5011385;28;20446;-57
2021/04/26 05:29:29;;;;;;;9.77;6.33;;;6.20;48.60;;;;;;5004532;28;20552;-57
2021/04/26 05:31:55;;;;;;;10.77;5.60;;;6.30;48.60;;;;;;5016744;28;20454;-56
2021/04/26 05:34:20;;;;;;;8.77;5.60;;;6.30;48.60;;;;;;5026914;28;20204;-57
2021/04/26 05:36:46;;;;;;;10.97;5.77;;;6.40;48.60;;;;;;5016129;28;20786;-57
2021/04/26 05:39:12;;;;;;;9.07;6.40;;;6.50;48.60;;;;;;5017089;28;20188;-57
2021/04/26 05:41:38;;;;;;;8.63;5.97;;;6.50;48.40;;;;;;5014864;28;20221;-57
2021/04/26 05:44:04;;;;;;;11.97;5.90;;;6.60;48.20;;;;;;5016286;28;21067;-58
2021/04/26 05:46:30;;;;;;;11.27;6.20;;;6.60;48.20;;;;;;5015086;28;20187;-56
2021/04/26 05:48:55;;;;;;;8.40;5.70;;;6.70;48.30;;;;;;5015581;28;20448;-57
2021/04/26 05:51:21;;;;;;;14.00;6.30;;;6.80;48.20;;;;;;5011524;28;20249;-59
2021/04/26 05:53:47;;;;;;;10.97;5.87;;;6.90;48.10;;;;;;5015151;28;20223;-57
2021/04/26 05:56:13;;;;;;;16.77;6.40;;;7.10;47.90;;;;;;5011413;28;20178;-58
2021/04/26 05:58:38;;;;;;;12.40;6.30;;;7.20;47.70;;;;;;5014783;28;20242;-59
2021/04/26 06:01:04;;;;;;;14.43;7.27;;;7.20;47.20;;;;;;5014409;28;20180;-58
2021/04/26 06:03:30;;;;;;;15.80;8.10;;;7.30;47.40;;;;;;5024930;28;20203;-58
2021/04/26 06:05:56;;;;;;;8.30;5.83;;;7.40;47.10;;;;;;5012143;28;21022;-60
2021/04/26 06:08:23;;;;;;;12.33;6.70;;;7.50;46.80;;;;;;5015491;28;20191;-56
2021/04/26 06:10:48;;;;;;;9.17;6.40;;;7.70;46.40;;;;;;5016162;28;20462;-58
2021/04/26 06:13:14;;;;;;;10.63;5.87;;;7.80;46.10;;;;;;5014816;28;20457;-58
2021/04/26 06:15:40;;;;;;;8.43;6.33;;;7.90;46.00;;;;;;5019679;28;20282;-56
2021/04/26 06:18:21;;;;;;;10.00;5.87;;;8.10;46.30;;;;;;5020691;28;20555;-57
2021/04/26 06:20:49;;;;;;;7.37;5.80;;;8.30;46.20;;;;;;5026809;28;20469;-56
2021/04/26 06:23:16;;;;;;;11.97;6.03;;;8.50;45.80;;;;;;5033825;28;20461;-56
2021/04/26 06:25:43;;;;;;;11.13;6.57;;;8.70;45.50;;;;;;5016671;28;20457;-56
2021/04/26 06:28:09;;;;;;;8.60;6.50;;;8.80;45.50;;;;;;5026177;28;20920;-57
2021/04/26 06:30:36;;;;;;;14.43;6.97;;;8.80;44.60;;;;;;5018438;28;20550;-57
2021/04/26 06:33:01;;;;;;;13.73;6.80;;;8.80;44.30;;;;;;5026056;28;20461;-60
2021/04/26 06:35:27;;;;;;;11.57;6.43;;;8.80;44.20;;;;;;5020259;28;20445;-57
2021/04/26 06:37:54;;;;;;;9.63;6.20;;;8.70;44.50;;;;;;5019903;28;20715;-58
2021/04/26 06:40:20;;;;;;;16.80;6.20;;;8.70;44.60;;;;;;5017966;28;20434;-57
2021/04/26 06:42:45;;;;;;;12.40;6.17;;;8.60;44.50;;;;;;5017185;28;20450;-59
2021/04/26 06:45:12;;;;;;;12.13;6.17;;;8.60;44.50;;;;;;5013675;28;20442;-60
2021/04/26 06:47:38;;;;;;;10.53;6.03;;;8.60;44.80;;;;;;5017096;28;20265;-58
2021/04/26 06:50:05;;;;;;;9.80;5.80;;;8.60;44.70;;;;;;5021230;28;20526;-59
2021/04/26 06:52:31;;;;;;;9.97;5.60;;;8.60;44.50;;;;;;5020621;28;20431;-58
2021/04/26 06:54:57;;;;;;;9.30;6.10;;;8.50;44.70;;;;;;5027392;22;20513;-59
2021/04/26 06:57:22;;;;;;;9.73;6.30;;;8.50;44.80;;;;;;5019115;28;20827;-59
2021/04/26 06:59:48;;;;;;;9.47;6.17;;;8.60;44.90;;;;;;5019510;28;20672;-62
2021/04/26 07:02:14;;;;;;;9.80;6.23;;;8.70;44.70;;;;;;5025791;28;20569;-59
2021/04/26 07:04:39;;;;;;;14.20;6.83;;;8.80;44.60;;;;;;5019473;28;20402;-61
2021/04/26 07:07:05;;;;;;;9.87;6.30;;;8.90;44.60;;;;;;5021812;28;20191;-60
2021/04/26 07:09:31;;;;;;;11.40;6.27;;;9.00;44.20;;;;;;5017988;28;20211;-60
2021/04/26 07:11:57;;;;;;;9.97;6.07;;;9.20;44.10;;;;;;5013612;28;20199;-60
2021/04/26 07:14:23;;;;;;;11.83;5.50;;;9.40;43.90;;;;;;5011806;28;20567;-59
2021/04/26 07:16:51;;;;;;;7.93;5.83;;;9.60;43.50;;;;;;5022084;28;20418;-59
2021/04/26 07:19:17;;;;;;;10.83;5.87;;;9.80;43.10;;;;;;5020542;28;20426;-59
2021/04/26 07:21:45;;;;;;;12.40;6.93;;;10.00;42.10;;;;;;5022356;28;20421;-59
2021/04/26 07:24:11;;;;;;;10.30;5.97;;;10.20;41.80;;;;;;5026847;28;20222;-60
2021/04/26 07:26:37;;;;;;;9.30;6.37;;;10.30;41.40;;;;;;5030871;28;20537;-61
2021/04/26 07:29:03;;;;;;;12.27;5.77;;;10.30;40.60;;;;;;5030877;28;20973;-61
2021/04/26 07:31:29;;;;;;;12.70;5.83;;;10.40;41.20;;;;;;5038504;28;20467;-61
2021/04/26 07:33:55;;;;;;;13.10;5.30;;;10.50;41.50;;;;;;5037003;28;20449;-62
2021/04/26 07:36:22;;;;;;;8.23;6.30;;;10.50;41.40;;;;;;5036529;28;20264;-59
2021/04/26 07:38:48;;;;;;;8.87;5.90;;;10.50;40.80;;;;;;5035137;28;20186;-59
2021/04/26 07:41:14;;;;;;;7.33;5.37;;;10.50;40.80;;;;;;5040783;28;20430;-60
2021/04/26 07:43:39;;;;;;;12.43;5.90;;;10.50;40.80;;;;;;5040202;28;20479;-60
2021/04/26 07:46:06;;;;;;;14.10;5.83;;;10.50;40.80;;;;;;5023740;28;20184;-58
2021/04/26 07:48:32;;;;;;;11.43;5.80;;;10.60;41.00;;;;;;5018025;28;20207;-60
2021/04/26 07:50:57;;;;;;;8.20;5.37;;;10.70;40.80;;;;;;5021095;28;21224;-61
2021/04/26 07:53:23;;;;;;;7.67;5.30;;;10.80;40.50;;;;;;5021729;28;20184;-57
2021/04/26 07:55:49;;;;;;;12.00;5.57;;;10.90;40.40;;;;;;5023781;28;20538;-60
2021/04/26 07:58:15;;;;;;;14.80;6.23;;;11.00;40.10;;;;;;5018358;28;20183;-59
2021/04/26 08:00:41;;;;;;;9.67;5.87;;;11.00;40.60;;;;;;5023547;28;21388;-62
2021/04/26 08:03:06;;;;;;;12.43;5.10;;;11.20;40.70;;;;;;5024065;28;20188;-59
2021/04/26 08:05:32;;;;;;;8.20;4.90;;;11.20;40.20;;;;;;5018346;28;20269;-60
2021/04/26 08:07:58;;;;;;;8.73;5.00;;;11.30;40.30;;;;;;5014631;28;20172;-58
2021/04/26 08:10:23;;;;;;;11.13;5.27;;;11.40;39.90;;;;;;5019254;28;20212;-59
2021/04/26 08:12:49;;;;;;;9.70;5.27;;;11.40;40.10;;;;;;5017307;28;20195;-59
2021/04/26 08:15:15;;;;;;;14.07;5.43;;;11.60;40.10;;;;;;5014006;28;20771;-59
2021/04/26 08:17:41;;;;;;;11.00;5.13;;;11.80;40.70;;;;;;5015005;28;20188;-60
2021/04/26 08:20:08;;;;;;;7.27;5.00;;;11.90;39.50;;;;;;5016783;28;20628;-61
2021/04/26 08:22:34;;;;;;;7.80;5.03;;;12.10;39.20;;;;;;5020570;28;20835;-59
2021/04/26 08:25:00;;;;;;;8.90;5.33;;;12.30;38.60;;;;;;5017653;28;20457;-59
2021/04/26 08:27:25;;;;;;;9.50;5.17;;;12.40;38.80;;;;;;5013921;28;20197;-64
2021/04/26 08:29:51;;;;;;;9.13;4.70;;;12.40;38.50;;;;;;5018092;28;20810;-61
2021/04/26 08:32:17;;;;;;;11.27;4.63;;;12.40;37.80;;;;;;5015510;28;20615;-63
2021/04/26 08:34:42;;;;;;;10.17;4.80;;;12.50;37.80;;;;;;5019438;28;20203;-59
2021/04/26 08:37:08;;;;;;;9.53;4.97;;;12.40;37.70;;;;;;5016857;28;20188;-61
2021/04/26 08:39:34;;;;;;;6.90;5.17;;;12.50;37.70;;;;;;5008424;28;20581;-63
2021/04/26 08:41:59;;;;;;;7.13;4.27;;;12.50;38.10;;;;;;5019249;28;20246;-60
2021/04/26 08:44:25;;;;;;;8.80;4.60;;;12.60;37.50;;;;;;5019864;28;20211;-59
2021/04/26 08:46:51;;;;;;;5.80;4.30;;;12.70;37.30;;;;;;5022189;28;20652;-61
2021/04/26 08:49:19;;;;;;;13.33;4.50;;;12.70;36.60;;;;;;5018693;28;20250;-61
2021/04/26 08:51:45;;;;;;;9.83;4.70;;;12.70;36.60;;;;;;5034670;28;20281;-60
2021/04/26 08:54:16;;;;;;;9.60;5.03;;;12.80;37.10;;;;;;5025648;28;20818;-63
2021/04/26 08:56:41;;;;;;;7.50;5.00;;;12.70;37.20;;;;;;5022323;28;22547;-59
2021/04/26 08:59:07;;;;;;;7.60;4.90;;;12.70;36.60;;;;;;5023147;28;20517;-58
2021/04/26 09:01:33;;;;;;;6.87;4.33;;;12.70;36.20;;;;;;5029255;28;20172;-59
2021/04/26 09:04:10;;;;;;;7.47;4.30;;;12.70;36.20;;;;;;5029718;28;20196;-63
2021/04/26 09:07:01;;;;;;;8.20;4.30;;;12.70;35.80;;;;;;5017788;28;20179;-61
2021/04/26 09:09:40;;;;;;;8.87;4.13;;;12.70;35.30;;;;;;5018586;28;20939;-60
2021/04/26 09:12:23;;;;;;;6.70;4.07;;;12.80;34.90;;;;;;5018354;28;20557;-61
2021/04/26 09:14:51;;;;;;;12.23;4.67;;;12.80;34.50;;;;;;5019072;28;20446;-61
2021/04/26 09:17:48;;;;;;;6.80;4.80;;;12.80;32.80;;;;;;5019829;28;20469;-62
2021/04/26 09:20:17;;;;;;;11.33;4.30;;;12.70;32.70;;;;;;5025516;28;20974;-61
2021/04/26 09:22:44;;;;;;;10.07;5.00;;;12.70;33.00;;;;;;5020804;28;20431;-59
2021/04/26 09:25:28;;;;;;;9.97;5.60;;;12.70;33.40;;;;;;5015037;28;20450;-63
2021/04/26 09:27:55;;;;;;;10.70;4.60;;;12.70;33.70;;;;;;5018622;28;20434;-63
2021/04/26 09:30:42;;;;;;;9.40;4.60;;;12.70;34.10;;;;;;5033870;28;20486;-60
2021/04/26 09:33:20;;;;;;;8.03;4.30;;;12.70;34.70;;;;;;5018199;28;20430;-63
2021/04/26 09:35:56;;;;;;;9.10;5.20;;;12.90;34.80;;;;;;5013354;28;20434;-60
2021/04/26 09:38:30;;;;;;;9.50;5.03;;;13.20;34.80;;;;;;5012242;28;20430;-63
2021/04/26 09:41:29;;;;;;;7.13;4.67;;;13.50;34.30;;;;;;5012192;28;20462;-61
2021/04/26 09:44:00;;;;;;;7.90;4.93;;;13.80;32.80;;;;;;5019149;28;20569;-62
2021/04/26 09:46:45;;;;;;;7.93;4.80;;;14.00;33.90;;;;;;5020982;28;20438;-61
2021/04/26 09:49:26;;;;;;;6.33;4.50;;;14.10;33.30;;;;;;5020815;28;20492;-60
2021/04/26 09:51:58;;;;;;;10.40;5.17;;;14.10;32.60;;;;;;5016845;28;20587;-61
2021/04/26 09:54:38;;;;;;;7.77;4.23;;;14.30;33.40;;;;;;5019301;28;21124;-60
2021/04/26 09:57:04;;;;;;;8.97;4.77;;;14.50;33.70;;;;;;5021026;28;20427;-62
2021/04/26 09:59:29;;;;;;;7.20;4.17;;;14.70;33.40;;;;;;5018180;28;20425;-60
2021/04/26 10:01:55;;;;;;;5.83;4.00;;;14.90;31.50;;;;;;5019958;28;20449;-61
2021/04/26 10:04:21;;;;;;;9.27;4.37;;;14.90;29.30;;;;;;5022581;28;20206;-64
2021/04/26 10:06:47;;;;;;;4.70;3.80;;;14.90;29.00;;;;;;5020198;28;20434;-62
2021/04/26 10:09:13;;;;;;;7.53;4.17;;;14.90;28.50;;;;;;5021965;28;20206;-61
2021/04/26 10:11:38;;;;;;;14.07;5.00;;;15.00;28.40;;;;;;5018950;28;20278;-60
2021/04/26 10:14:10;;;;;;;8.20;4.50;;;15.10;28.70;;;;;;5019327;28;20195;-61
2021/04/26 10:16:57;;;;;;;9.13;4.30;;;15.20;28.50;;;;;;5019239;28;20180;-63
2021/04/26 10:19:38;;;;;;;8.87;4.30;;;15.20;29.20;;;;;;5021134;28;20430;-65
2021/04/26 10:22:05;;;;;;;6.70;3.63;;;15.30;29.40;;;;;;5019001;28;20437;-60
2021/04/26 10:24:32;;;;;;;6.47;4.53;;;15.40;28.70;;;;;;5019518;28;20463;-68
2021/04/26 10:27:05;;;;;;;7.90;3.90;;;15.50;28.70;;;;;;5020144;28;20426;-60
2021/04/26 10:29:39;;;;;;;10.60;4.80;;;15.60;29.00;;;;;;5020808;28;22348;-61
2021/04/26 10:32:13;;;;;;;7.50;4.53;;;15.60;29.50;;;;;;5020901;28;20457;-62
2021/04/26 10:34:42;;;;;;;12.80;5.00;;;15.70;29.70;;;;;;5019980;28;20462;-62
2021/04/26 10:37:16;;;;;;;12.10;4.97;;;15.80;29.80;;;;;;5019215;28;20515;-61
2021/04/26 10:40:06;;;;;;;9.80;4.43;;;15.90;29.80;;;;;;5014216;28;20441;-62
2021/04/26 10:42:47;;;;;;;7.50;4.10;;;16.10;30.50;;;;;;5033535;28;20414;-61
2021/04/26 10:45:12;;;;;;;5.70;3.37;;;16.20;29.10;;;;;;5030922;28;20454;-63
2021/04/26 10:47:43;;;;;;;9.50;4.03;;;16.20;28.20;;;;;;5024597;28;20549;-60
2021/04/26 10:50:09;;;;;;;4.93;3.53;;;16.10;26.80;;;;;;5026627;28;20175;-65
2021/04/26 10:52:36;;;;;;;10.27;4.00;;;16.10;26.40;;;;;;5025202;28;20489;-59
2021/04/26 10:55:08;;;;;;;8.83;4.37;;;16.20;27.00;;;;;;5020073;28;20207;-57
2021/04/26 10:57:43;;;;;;;12.43;4.47;;;16.30;27.50;;;;;;5018533;28;20430;-59
2021/04/26 11:00:21;;;;;;;7.83;4.50;;;16.50;27.70;;;;;;5015931;28;20520;-58
2021/04/26 11:02:59;;;;;;;5.50;4.10;;;16.80;28.40;;;;;;5015721;28;20438;-58
2021/04/26 11:05:28;;;;;;;6.83;4.20;;;17.00;28.40;;;;;;5021113;28;20442;-59
2021/04/26 11:08:02;;;;;;;13.10;5.07;;;17.20;28.10;;;;;;5015789;28;21199;-61
2021/04/26 11:10:38;;;;;;;8.33;4.90;;;17.40;29.10;;;;;;5016589;28;20457;-60
2021/04/26 11:13:33;;;;;;;6.90;4.10;;;17.60;28.20;;;;;;5020807;28;20462;-59
2021/04/26 11:16:14;;;;;;;6.23;4.17;;;17.60;27.90;;;;;;5029200;28;20517;-60
2021/04/26 11:18:42;;;;;;;10.90;4.70;;;17.60;27.80;;;;;;5021204;28;20429;-59
2021/04/26 11:21:09;;;;;;;7.80;4.30;;;17.70;27.80;;;;;;5027316;28;20432;-57
2021/04/26 11:23:45;;;;;;;6.03;4.20;;;17.80;27.30;;;;;;5022557;28;20606;-59
2021/04/26 11:26:17;;;;;;;8.03;3.50;;;17.90;27.40;;;;;;5019760;28;20431;-60
2021/04/26 11:29:01;;;;;;;6.00;3.70;;;17.90;26.90;;;;;;5022746;28;20433;-60
2021/04/26 11:31:42;;;;;;;9.67;4.60;;;18.10;27.70;;;;;;5025299;28;20482;-60
2021/04/26 11:34:08;;;;;;;7.70;4.10;;;18.20;27.40;;;;;;5025365;28;20469;-60
2021/04/26 11:36:36;;;;;;;6.67;4.40;;;18.30;27.30;;;;;;5029569;28;20442;-58
2021/04/26 11:39:09;;;;;;;8.00;4.00;;;18.40;27.70;;;;;;5025303;28;20430;-59
2021/04/26 11:41:46;;;;;;;4.97;3.77;;;18.50;27.20;;;;;;5019501;28;20576;-60
2021/04/26 11:44:12;;;;;;;7.13;3.90;;;18.70;27.90;;;;;;5018261;28;20469;-60
2021/04/26 11:46:39;;;;;;;4.10;3.73;;;18.80;27.20;;;;;;5017611;28;20450;-57
2021/04/26 11:49:21;;;;;;;9.40;3.80;;;18.90;27.70;;;;;;5018316;28;20435;-59
2021/04/26 11:51:55;;;;;;;4.87;3.30;;;19.00;27.50;;;;;;5018800;28;20469;-61
2021/04/26 11:54:24;;;;;;;5.73;2.87;;;19.20;26.80;;;;;;5015989;28;20454;-59
2021/04/26 11:57:08;;;;;;;6.40;3.50;;;19.40;25.70;;;;;;5021443;28;20431;-60
2021/04/26 11:59:35;;;;;;;10.40;3.20;;;19.50;24.60;;;;;;5027263;28;20473;-60
2021/04/26 12:02:01;;;;;;;4.90;2.97;;;19.50;24.30;;;;;;5022655;28;20530;-61
2021/04/26 12:04:42;;;;;;;5.90;2.80;;;19.50;23.90;;;;;;5032889;28;20548;-59
2021/04/26 12:07:10;;;;;;;5.13;3.27;;;19.50;23.70;;;;;;5013489;28;20242;-59
2021/04/26 12:09:37;;;;;;;7.17;3.17;;;19.50;24.30;;;;;;5019661;28;20430;-60
2021/04/26 12:12:05;;;;;;;7.43;3.20;;;19.60;23.60;;;;;;5016093;28;20459;-62
2021/04/26 12:14:31;;;;;;;6.40;3.97;;;19.80;23.70;;;;;;5019001;28;20454;-60
2021/04/26 12:17:17;;;;;;;4.60;3.80;;;20.00;23.90;;;;;;5014388;28;20429;-61
2021/04/26 12:19:43;;;;;;;15.73;4.33;;;20.00;25.20;;;;;;5018268;28;20434;-60
2021/04/26 12:22:09;;;;;;;7.03;3.80;;;20.10;25.30;;;;;;5011218;28;20810;-61
2021/04/26 12:24:36;;;;;;;6.07;3.50;;;20.20;24.10;;;;;;5021365;28;20447;-60
2021/04/26 12:27:12;;;;;;;3.90;3.50;;;20.30;23.70;;;;;;5019574;28;20434;-60
2021/04/26 12:29:40;;;;;;;6.73;3.87;;;20.40;23.50;;;;;;5033355;28;20422;-61
2021/04/26 12:32:20;;;;;;;7.67;4.00;;;20.50;24.00;;;;;;5016985;28;20493;-59
2021/04/26 12:34:53;;;;;;;6.13;3.67;;;20.70;23.80;;;;;;5010713;28;21116;-61
2021/04/26 12:37:25;;;;;;;5.00;4.27;;;20.80;24.30;;;;;;5017529;28;20516;-60
2021/04/26 12:39:52;;;;;;;4.97;3.40;;;20.90;23.20;;;;;;5016220;28;20480;-61
2021/04/26 12:42:21;;;;;;;4.90;4.00;;;21.00;24.90;;;;;;5024247;28;20448;-63
2021/04/26 12:44:48;;;;;;;4.17;3.77;;;21.10;24.10;;;;;;5011331;28;20465;-60
2021/04/26 12:47:23;;;;;;;6.90;3.73;;;21.20;23.90;;;;;;5013153;28;20949;-63
2021/04/26 12:50:13;;;;;;;5.90;4.07;;;21.40;24.20;;;;;;5016501;28;20563;-61
2021/04/26 12:52:39;;;;;;;4.90;4.17;;;21.50;23.70;;;;;;5016332;28;20435;-63
2021/04/26 12:55:08;;;;;;;4.13;3.43;;;21.60;24.50;;;;;;5015013;28;20856;-62
2021/04/26 12:57:34;;;;;;;4.90;4.00;;;21.70;24.20;;;;;;5015166;28;20164;-62